Station Historical Data
Daily Summary for September 11, 2017 Units:  Metric    English   Both
« Previous Day
Next Day »
Daily Weekly Monthly Yearly Custom
  High: Low: Average:
Temperature: 23.8 °C 6.8 °C 15.3 °C
Dew Point: 14.3 °C 5 °C 9.5 °C
Humidity: 90% 42% 71%
Wind Speed: 9.7km/h 0km/h 1.6km/h
Wind Gust: 12.9km/h - -
Wind- - SSE
Pressure: 1030.7 hPa 1020.5 hPa -
Precipitation: 0 mm    
Historical Graphs
 
 
Tabular Data for September 11, 2017
Time Temperature Dew Point Pressure Wind Wind Speed Wind Gust Humidity Rainfall Rate (Hourly)
00:04 10.4 °C 7.6 °C 1030.7 hPa Calm     83% 0 mm
00:09 10.3 °C 7.7 °C 1030.4 hPa Calm     84% 0 mm
00:14 10.3 °C 7.7 °C 1030.4 hPa Calm     84% 0 mm
00:19 10.4 °C 7.8 °C 1030.4 hPa Calm     84% 0 mm
00:24 10.4 °C 7.8 °C 1030.4 hPa Calm     84% 0 mm
00:29 10.4 °C 7.8 °C 1030.4 hPa Calm     84% 0 mm
00:34 10.4 °C 7.8 °C 1030.4 hPa Calm     84% 0 mm
00:39 10.4 °C 8 °C 1030.4 hPa ENE 1.6 km/h 6.4 km/h 85% 0 mm
00:44 10.4 °C 7.8 °C 1030.4 hPa ENE 4.8 km/h 4.8 km/h 84% 0 mm
00:49 10.4 °C 7.8 °C 1030.4 hPa Calm   3.2 km/h 84% 0 mm
00:54 10.3 °C 7.7 °C 1030.4 hPa Calm   4.8 km/h 84% 0 mm
00:59 10.1 °C 7.6 °C 1030.4 hPa Calm     84% 0 mm
01:04 10 °C 7.4 °C 1030.4 hPa Calm     84% 0 mm
01:09 9.9 °C 7.5 °C 1030 hPa Calm     85% 0 mm
01:14 9.9 °C 7.5 °C 1030 hPa Calm     85% 0 mm
01:19 9.8 °C 7.4 °C 1030 hPa Calm     85% 0 mm
01:24 9.8 °C 7.4 °C 1030 hPa Calm     85% 0 mm
01:29 9.8 °C 7.4 °C 1030 hPa Calm   4.8 km/h 85% 0 mm
01:34 9.7 °C 7.5 °C 1030 hPa ENE 1.6 km/h 6.4 km/h 86% 0 mm
01:39 9.7 °C 7.5 °C 1029.7 hPa Calm   4.8 km/h 86% 0 mm
01:44 9.6 °C 7.4 °C 1029.7 hPa ENE 3.2 km/h 6.4 km/h 86% 0 mm
01:49 9.6 °C 7.4 °C 1029.7 hPa ENE 1.6 km/h 4.8 km/h 86% 0 mm
01:54 9.6 °C 7.4 °C 1029.7 hPa Calm   4.8 km/h 86% 0 mm
01:59 9.5 °C 7.3 °C 1029.3 hPa Calm   4.8 km/h 86% 0 mm
02:04 9.4 °C 7.2 °C 1029.3 hPa Calm   4.8 km/h 86% 0 mm
02:09 9.3 °C 7.1 °C 1029.3 hPa Calm   4.8 km/h 86% 0 mm
02:14 9.3 °C 7.1 °C 1029.3 hPa ENE 1.6 km/h 4.8 km/h 86% 0 mm
02:19 9.3 °C 7.1 °C 1029 hPa ENE 1.6 km/h 4.8 km/h 86% 0 mm
02:29 9.2 °C 6.9 °C 1029 hPa Calm     86% 0 mm
02:34 9.2 °C 7 °C 1029 hPa Calm     86% 0 mm
02:39 9.1 °C 6.9 °C 1029 hPa Calm     86% 0 mm
02:44 8.9 °C 6.7 °C 1029 hPa Calm     86% 0 mm
02:49 8.9 °C 6.7 °C 1029 hPa Calm     86% 0 mm
02:54 8.8 °C 6.6 °C 1029 hPa Calm     86% 0 mm
02:59 8.7 °C 6.4 °C 1028.7 hPa Calm     86% 0 mm
03:04 8.6 °C 6.6 °C 1028.7 hPa Calm     87% 0 mm
03:09 8.5 °C 6.4 °C 1028.7 hPa Calm     87% 0 mm
03:14 8.5 °C 6.4 °C 1028.7 hPa Calm     87% 0 mm
03:19 8.6 °C 6.5 °C 1028.7 hPa Calm     87% 0 mm
03:24 8.5 °C 6.4 °C 1028.7 hPa Calm     87% 0 mm
03:29 8.5 °C 6.4 °C 1028.7 hPa Calm     87% 0 mm
03:34 8.3 °C 6.3 °C 1028.3 hPa Calm     87% 0 mm
03:39 8.2 °C 6.2 °C 1028.3 hPa Calm     87% 0 mm
03:44 8.2 °C 6.3 °C 1028.3 hPa Calm     88% 0 mm
03:49 8.2 °C 6.3 °C 1028 hPa Calm     88% 0 mm
03:54 8.2 °C 6.3 °C 1028 hPa Calm     88% 0 mm
03:59 8.1 °C 6.2 °C 1028 hPa Calm     88% 0 mm
04:04 8.1 °C 6.2 °C 1028 hPa Calm     88% 0 mm
04:09 8.1 °C 6.2 °C 1028 hPa Calm     88% 0 mm
04:14 8.1 °C 6.2 °C 1028 hPa Calm     88% 0 mm
04:19 8 °C 6.1 °C 1028 hPa Calm     88% 0 mm
04:24 8 °C 6.1 °C 1027.7 hPa Calm     88% 0 mm
04:29 7.9 °C 6.1 °C 1027.7 hPa Calm     88% 0 mm
04:34 7.8 °C 5.9 °C 1027.7 hPa Calm     88% 0 mm
04:39 7.8 °C 5.9 °C 1027.7 hPa Calm     88% 0 mm
04:44 7.9 °C 6.1 °C 1027.7 hPa Calm     88% 0 mm
04:49 7.8 °C 5.9 °C 1027.7 hPa Calm     88% 0 mm
04:54 7.8 °C 5.9 °C 1027.7 hPa Calm     88% 0 mm
04:59 7.8 °C 5.9 °C 1027.7 hPa Calm     88% 0 mm
05:04 7.7 °C 5.8 °C 1027.3 hPa Calm     88% 0 mm
05:09 7.8 °C 5.9 °C 1027.3 hPa Calm     88% 0 mm
05:14 7.8 °C 5.9 °C 1027.3 hPa Calm     88% 0 mm
05:19 7.8 °C 5.9 °C 1027.3 hPa Calm     88% 0 mm
05:24 7.9 °C 5.8 °C 1027.3 hPa Calm     87% 0 mm
05:29 7.8 °C 5.8 °C 1027.3 hPa Calm     87% 0 mm
05:34 7.7 °C 5.7 °C 1027.7 hPa Calm     87% 0 mm
05:39 7.6 °C 5.6 °C 1027.7 hPa Calm     87% 0 mm
05:44 7.6 °C 5.6 °C 1027.3 hPa Calm     87% 0 mm
05:49 7.4 °C 5.4 °C 1027.7 hPa Calm     87% 0 mm
05:54 7.3 °C 5.3 °C 1027.7 hPa Calm     87% 0 mm
05:59 7.2 °C 5.2 °C 1027.7 hPa Calm     87% 0 mm
06:04 7.1 °C 5.2 °C 1028 hPa Calm     88% 0 mm
06:14 6.9 °C 5.1 °C 1028 hPa Calm     88% 0 mm
06:20 6.8 °C 5 °C 1028 hPa Calm     88% 0 mm
06:29 6.9 °C 5.2 °C 1028 hPa Calm     89% 0 mm
06:34 7 °C 5.3 °C 1028 hPa Calm     89% 0 mm
06:39 7 °C 5.3 °C 1028 hPa Calm     89% 0 mm
06:44 7 °C 5.3 °C 1028.3 hPa Calm     89% 0 mm
06:49 7.1 °C 5.4 °C 1028.3 hPa Calm     89% 0 mm
06:54 7.3 °C 5.8 °C 1028.3 hPa Calm     90% 0 mm
06:59 7.4 °C 5.7 °C 1028.3 hPa Calm     89% 0 mm
07:04 7.5 °C 5.8 °C 1028.3 hPa Calm     89% 0 mm
07:09 7.5 °C 5.8 °C 1028.7 hPa Calm     89% 0 mm
07:14 7.5 °C 5.8 °C 1028.7 hPa Calm     89% 0 mm
07:19 7.5 °C 5.7 °C 1029 hPa Calm     88% 0 mm
07:24 7.5 °C 5.7 °C 1029 hPa Calm     88% 0 mm
07:29 7.6 °C 5.7 °C 1029.3 hPa Calm     88% 0 mm
07:34 7.9 °C 6.2 °C 1029.3 hPa Calm     89% 0 mm
07:39 8.1 °C 6.2 °C 1029.3 hPa Calm     88% 0 mm
07:44 8.4 °C 6.5 °C 1029.3 hPa Calm     88% 0 mm
07:49 8.6 °C 6.6 °C 1029 hPa Calm     87% 0 mm
07:54 8.9 °C 6.8 °C 1029 hPa Calm     87% 0 mm
07:59 9.3 °C 7.1 °C 1029 hPa Calm     86% 0 mm
08:04 9.8 °C 7.2 °C 1029 hPa Calm     84% 0 mm
08:09 10 °C 7.2 °C 1029.3 hPa Calm     83% 0 mm
08:14 10.3 °C 7.5 °C 1029.3 hPa Calm   6.4 km/h 83% 0 mm
08:19 10.6 °C 7.6 °C 1029.3 hPa SSW 1.6 km/h 3.2 km/h 82% 0 mm
08:24 10.9 °C 7.8 °C 1029.3 hPa Calm   4.8 km/h 81% 0 mm
08:29 11.4 °C 7.7 °C 1029.3 hPa Calm     78% 0 mm
08:34 11.4 °C 7.7 °C 1029.3 hPa Calm   3.2 km/h 78% 0 mm
08:39 11.7 °C 7.8 °C 1029 hPa Calm   1.6 km/h 77% 0 mm
08:44 12 °C 7.5 °C 1029 hPa Calm     74% 0 mm
08:49 12.7 °C 8 °C 1028.7 hPa Calm     73% 0 mm
08:54 12.9 °C 8 °C 1029 hPa Calm     72% 0 mm
08:59 13.3 °C 8.4 °C 1028.7 hPa Calm     72% 0 mm
09:04 13.5 °C 8.1 °C 1028.7 hPa Calm     70% 0 mm
09:09 13.8 °C 8.4 °C 1028.7 hPa Calm     70% 0 mm
09:14 14.1 °C 8.3 °C 1028.7 hPa Calm     68% 0 mm
09:24 15.1 °C 9.2 °C 1028.7 hPa Calm     68% 0 mm
09:29 15.5 °C 9.2 °C 1028.7 hPa Calm     66% 0 mm
09:34 15.3 °C 8.9 °C 1028.7 hPa Calm   3.2 km/h 66% 0 mm
09:39 15.4 °C 8.9 °C 1028.7 hPa Calm     65% 0 mm
09:44 15.7 °C 9.2 °C 1028.7 hPa SSE 3.2 km/h 8 km/h 65% 0 mm
09:49 15.8 °C 9 °C 1028.7 hPa Calm   6.4 km/h 64% 0 mm
09:54 15.9 °C 8.2 °C 1028.7 hPa SSW 3.2 km/h 11.3 km/h 60% 0 mm
09:59 16.3 °C 8.8 °C 1028.7 hPa SW 1.6 km/h 6.4 km/h 61% 0 mm
10:04 16.6 °C 9 °C 1028.7 hPa South 4.8 km/h 8 km/h 61% 0 mm
10:09 16.6 °C 8.6 °C 1028.7 hPa SSW 4.8 km/h 8 km/h 59% 0 mm
10:14 16.7 °C 8.3 °C 1028.7 hPa South 3.2 km/h 8 km/h 58% 0 mm
10:19 17 °C 9.4 °C 1028.7 hPa South 3.2 km/h 8 km/h 61% 0 mm
10:24 17.1 °C 9.1 °C 1028.3 hPa SSW 3.2 km/h 8 km/h 59% 0 mm
10:29 17.3 °C 9.5 °C 1028.3 hPa SSW 3.2 km/h 6.4 km/h 60% 0 mm
10:34 16.9 °C 8.6 °C 1028.3 hPa West 1.6 km/h 6.4 km/h 58% 0 mm
10:39 17.2 °C 8.9 °C 1028.3 hPa WSW 3.2 km/h 6.4 km/h 58% 0 mm
10:44 17.4 °C 9.1 °C 1028.3 hPa WSW 4.8 km/h 9.7 km/h 58% 0 mm
10:49 18.1 °C 10.2 °C 1028.3 hPa SW 3.2 km/h 6.4 km/h 60% 0 mm
10:54 17.9 °C 9.6 °C 1028 hPa SW 3.2 km/h 8 km/h 58% 0 mm
10:59 17.6 °C 8.7 °C 1028 hPa SW 1.6 km/h 8 km/h 56% 0 mm
11:04 18.1 °C 9.9 °C 1028 hPa WSW 4.8 km/h 6.4 km/h 59% 0 mm
11:09 18.1 °C 9.1 °C 1028 hPa SW 3.2 km/h 8 km/h 56% 0 mm
11:14 18 °C 8.6 °C 1027.7 hPa WSW 3.2 km/h 8 km/h 54% 0 mm
11:19 18 °C 9.3 °C 1027.7 hPa WSW 1.6 km/h 6.4 km/h 57% 0 mm
11:24 18.4 °C 9.8 °C 1027.3 hPa Calm   1.6 km/h 57% 0 mm
11:29 18.7 °C 8.6 °C 1027.3 hPa NW 1.6 km/h 8 km/h 52% 0 mm
11:34 18.6 °C 9.9 °C 1027.3 hPa WNW 4.8 km/h 6.4 km/h 57% 0 mm
11:39 18.9 °C 9.7 °C 1027.3 hPa NW 3.2 km/h 6.4 km/h 55% 0 mm
11:44 18.6 °C 8.8 °C 1027 hPa WNW 3.2 km/h 6.4 km/h 53% 0 mm
11:49 18.7 °C 9.5 °C 1027 hPa West 1.6 km/h 4.8 km/h 55% 0 mm
11:54 18.8 °C 9 °C 1027 hPa North 3.2 km/h 6.4 km/h 53% 0 mm
11:59 19.1 °C 9.6 °C 1027 hPa Calm   3.2 km/h 54% 0 mm
12:04 19.4 °C 10.2 °C 1027 hPa NW 1.6 km/h 6.4 km/h 55% 0 mm
12:09 19.6 °C 9.8 °C 1027 hPa West 6.4 km/h 8 km/h 53% 0 mm
12:14 19.5 °C 11.3 °C 1027 hPa West 3.2 km/h 8 km/h 59% 0 mm
12:19 19.4 °C 9.9 °C 1027 hPa NW 3.2 km/h 8 km/h 54% 0 mm
12:24 19.9 °C 10.9 °C 1027 hPa NW 4.8 km/h 4.8 km/h 56% 0 mm
12:29 20 °C 9.3 °C 1027 hPa Calm   6.4 km/h 50% 0 mm
12:34 20.4 °C 10.8 °C 1027 hPa NW 4.8 km/h 4.8 km/h 54% 0 mm
12:39 20.4 °C 10.8 °C 1027 hPa SSW 3.2 km/h 6.4 km/h 54% 0 mm
12:44 20.3 °C 9.6 °C 1026.6 hPa SW 3.2 km/h 9.7 km/h 50% 0 mm
12:49 20.1 °C 9.7 °C 1026.6 hPa WSW 3.2 km/h 9.7 km/h 51% 0 mm
12:54 20.3 °C 9.5 °C 1026.3 hPa SW 3.2 km/h 8 km/h 50% 0 mm
12:59 20.4 °C 10.6 °C 1026.3 hPa SSW 1.6 km/h 4.8 km/h 53% 0 mm
13:04 20.8 °C 10.8 °C 1026.3 hPa WSW 1.6 km/h 9.7 km/h 53% 0 mm
13:09 20.9 °C 10.7 °C 1026.3 hPa West 1.6 km/h 6.4 km/h 52% 0 mm
13:14 20.6 °C 11.4 °C 1026.3 hPa Calm   1.6 km/h 56% 0 mm
13:19 21 °C 10.2 °C 1026.3 hPa NW 1.6 km/h 6.4 km/h 50% 0 mm
13:24 21.1 °C 8.1 °C 1026.3 hPa WNW 3.2 km/h 6.4 km/h 43% 0 mm
13:29 20.8 °C 10.6 °C 1026 hPa WSW 4.8 km/h 6.4 km/h 52% 0 mm
13:34 21.2 °C 10.3 °C 1026 hPa Calm   6.4 km/h 50% 0 mm
13:39 21.3 °C 9.9 °C 1026 hPa NNW 3.2 km/h 11.3 km/h 48% 0 mm
13:44 21.5 °C 10.6 °C 1026 hPa WNW 3.2 km/h 6.4 km/h 50% 0 mm
13:49 21.2 °C 10.3 °C 1025.6 hPa WNW 3.2 km/h 6.4 km/h 50% 0 mm
13:54 21.6 °C 10.7 °C 1025.6 hPa West 1.6 km/h 6.4 km/h 50% 0 mm
13:59 22 °C 12 °C 1025.6 hPa West 3.2 km/h 9.7 km/h 53% 0 mm
14:04 22.1 °C 10.6 °C 1025.6 hPa Calm   9.7 km/h 48% 0 mm
14:09 22 °C 11.1 °C 1025.6 hPa WNW 4.8 km/h 9.7 km/h 50% 0 mm
14:14 22 °C 9.8 °C 1025.3 hPa WNW 6.4 km/h 6.4 km/h 46% 0 mm
14:19 22.2 °C 11 °C 1025.3 hPa WNW 3.2 km/h 6.4 km/h 49% 0 mm
14:24 22.4 °C 11.5 °C 1025.3 hPa WNW 3.2 km/h 6.4 km/h 50% 0 mm
14:29 21.8 °C 9.7 °C 1025.3 hPa WNW 1.6 km/h 6.4 km/h 46% 0 mm
14:34 22.3 °C 12 °C 1024.9 hPa Calm   3.2 km/h 52% 0 mm
14:39 22.6 °C 10.3 °C 1024.9 hPa North 3.2 km/h 8 km/h 46% 0 mm
14:44 22.4 °C 11.2 °C 1024.9 hPa WNW 3.2 km/h 6.4 km/h 49% 0 mm
14:49 22.5 °C 11.6 °C 1024.9 hPa Calm   4.8 km/h 50% 0 mm
14:54 22.9 °C 11.6 °C 1024.6 hPa WNW 3.2 km/h 6.4 km/h 49% 0 mm
14:59 22.8 °C 10.9 °C 1024.6 hPa NW 4.8 km/h 6.4 km/h 47% 0 mm
15:04 22.4 °C 9.9 °C 1024.6 hPa WNW 1.6 km/h 6.4 km/h 45% 0 mm
15:09 23.1 °C 11.8 °C 1024.3 hPa NW 3.2 km/h 6.4 km/h 49% 0 mm
15:14 23.5 °C 10.9 °C 1024.3 hPa ENE 6.4 km/h 8 km/h 45% 0 mm
15:19 23.3 °C 9.7 °C 1024.6 hPa Calm   9.7 km/h 42% 0 mm
15:24 23.1 °C 11.5 °C 1024.3 hPa ENE 3.2 km/h 9.7 km/h 48% 0 mm
15:29 23.2 °C 9.6 °C 1024.3 hPa ENE 3.2 km/h 11.3 km/h 42% 0 mm
15:34 23.1 °C 10.1 °C 1023.9 hPa ENE 4.8 km/h 11.3 km/h 44% 0 mm
15:39 23.1 °C 9.8 °C 1023.9 hPa ENE 3.2 km/h 11.3 km/h 43% 0 mm
15:44 23.4 °C 10.1 °C 1023.6 hPa Calm   4.8 km/h 43% 0 mm
15:49 23.7 °C 10.7 °C 1023.6 hPa NNE 1.6 km/h 8 km/h 44% 0 mm
15:54 23.7 °C 10.7 °C 1023.6 hPa NE 6.4 km/h 11.3 km/h 44% 0 mm
15:59 23.6 °C 11 °C 1023.6 hPa ENE 4.8 km/h 11.3 km/h 45% 0 mm
16:04 23.4 °C 10.4 °C 1023.2 hPa SSE 3.2 km/h 4.8 km/h 44% 0 mm
16:09 23.7 °C 11.1 °C 1023.2 hPa East 1.6 km/h 9.7 km/h 45% 0 mm
16:14 23.8 °C 11.4 °C 1023.2 hPa NE 4.8 km/h 9.7 km/h 46% 0 mm
16:19 23.6 °C 10.9 °C 1023.2 hPa NE 3.2 km/h 12.9 km/h 45% 0 mm
16:24 23.7 °C 12 °C 1023.2 hPa NE 9.7 km/h 11.3 km/h 48% 0 mm
16:29 23.4 °C 11.8 °C 1022.9 hPa ENE 4.8 km/h 11.3 km/h 48% 0 mm
16:34 23.3 °C 11.4 °C 1022.9 hPa NE 3.2 km/h 9.7 km/h 47% 0 mm
16:39 23.6 °C 11.6 °C 1022.9 hPa NE 1.6 km/h 8 km/h 47% 0 mm
16:44 23.6 °C 11.3 °C 1022.9 hPa NE 4.8 km/h 12.9 km/h 46% 0 mm
16:49 23.4 °C 10.8 °C 1022.9 hPa NE 4.8 km/h 12.9 km/h 45% 0 mm
16:54 23.6 °C 11.9 °C 1022.6 hPa ENE 4.8 km/h 6.4 km/h 48% 0 mm
16:59 23.5 °C 11.8 °C 1022.6 hPa NE 3.2 km/h 6.4 km/h 48% 0 mm
17:04 23.4 °C 11.8 °C 1022.6 hPa NE 4.8 km/h 11.3 km/h 48% 0 mm
17:09 23.2 °C 11.8 °C 1022.6 hPa ENE 3.2 km/h 8 km/h 49% 0 mm
17:14 23.2 °C 12.5 °C 1022.6 hPa Calm   6.4 km/h 51% 0 mm
17:19 23.3 °C 11.7 °C 1022.6 hPa ENE 3.2 km/h 8 km/h 48% 0 mm
17:24 23.2 °C 12.2 °C 1022.2 hPa Calm   11.3 km/h 50% 0 mm
17:29 23.3 °C 12.9 °C 1022.6 hPa NNE 1.6 km/h 6.4 km/h 52% 0 mm
17:34 23.2 °C 12.4 °C 1022.2 hPa NE 1.6 km/h 8 km/h 51% 0 mm
17:39 23.3 °C 11.9 °C 1022.2 hPa NE 3.2 km/h 8 km/h 49% 0 mm
17:44 23.3 °C 12.3 °C 1022.2 hPa ENE 3.2 km/h 8 km/h 50% 0 mm
17:49 23 °C 12.3 °C 1022.2 hPa ENE 1.6 km/h 11.3 km/h 51% 0 mm
17:54 22.6 °C 12.5 °C 1022.2 hPa North 4.8 km/h 6.4 km/h 53% 0 mm
17:59 22.5 °C 12.4 °C 1022.2 hPa NE 3.2 km/h 11.3 km/h 53% 0 mm
18:04 22.4 °C 12.7 °C 1022.2 hPa NE 4.8 km/h 11.3 km/h 54% 0 mm
18:09 22.3 °C 12.6 °C 1022.2 hPa ENE 3.2 km/h 11.3 km/h 54% 0 mm
18:14 22.2 °C 13 °C 1022.2 hPa ENE 4.8 km/h 11.3 km/h 56% 0 mm
18:19 22.1 °C 13.2 °C 1021.9 hPa NE 6.4 km/h 11.3 km/h 57% 0 mm
18:24 22 °C 12.6 °C 1021.9 hPa NE 4.8 km/h 11.3 km/h 55% 0 mm
18:29 21.9 °C 12.8 °C 1021.9 hPa NE 3.2 km/h 12.9 km/h 56% 0 mm
18:34 21.9 °C 12.7 °C 1021.9 hPa ENE 4.8 km/h 12.9 km/h 56% 0 mm
18:39 21.7 °C 13.3 °C 1021.9 hPa ENE 3.2 km/h 12.9 km/h 59% 0 mm
18:44 20.9 °C 14.3 °C 1021.9 hPa NE 3.2 km/h 8 km/h 66% 0 mm
18:49 20.2 °C 14.1 °C 1021.9 hPa NNE 3.2 km/h 9.7 km/h 68% 0 mm
18:54 19.7 °C 14.1 °C 1021.9 hPa North 3.2 km/h 12.9 km/h 70% 0 mm
18:59 19.4 °C 14.1 °C 1021.9 hPa North 1.6 km/h 9.7 km/h 71% 0 mm
19:04 19.2 °C 14.1 °C 1021.9 hPa North 4.8 km/h 6.4 km/h 72% 0 mm
19:09 19 °C 13.8 °C 1021.9 hPa NNE 3.2 km/h 6.4 km/h 72% 0 mm
19:14 18.8 °C 13.8 °C 1021.9 hPa North 3.2 km/h 9.7 km/h 73% 0 mm
19:19 18.5 °C 13.6 °C 1021.9 hPa North 3.2 km/h 9.7 km/h 73% 0 mm
19:24 18.4 °C 13.7 °C 1022.2 hPa North 3.2 km/h 9.7 km/h 74% 0 mm
19:29 18.1 °C 13.4 °C 1022.2 hPa North 6.4 km/h 9.7 km/h 74% 0 mm
19:34 17.9 °C 13.4 °C 1022.2 hPa Calm   9.7 km/h 75% 0 mm
19:39 17.7 °C 13 °C 1021.9 hPa North 3.2 km/h 8 km/h 74% 0 mm
19:44 17.6 °C 13.1 °C 1021.9 hPa North 3.2 km/h 8 km/h 75% 0 mm
19:49 17.3 °C 12.8 °C 1021.9 hPa NNE 3.2 km/h 8 km/h 75% 0 mm
19:54 17.2 °C 12.7 °C 1021.9 hPa NE 3.2 km/h 8 km/h 75% 0 mm
19:59 17.1 °C 12.6 °C 1021.9 hPa Calm   4.8 km/h 75% 0 mm
20:04 17 °C 12.7 °C 1021.9 hPa NE 1.6 km/h 8 km/h 76% 0 mm
20:09 16.9 °C 12.5 °C 1021.9 hPa Calm   6.4 km/h 75% 0 mm
20:14 16.8 °C 12.6 °C 1021.9 hPa Calm   8 km/h 76% 0 mm
20:19 16.7 °C 12.4 °C 1021.9 hPa NE 1.6 km/h 8 km/h 76% 0 mm
20:24 16.7 °C 12.4 °C 1021.9 hPa ENE 3.2 km/h 11.3 km/h 76% 0 mm
20:29 16.6 °C 12.3 °C 1021.9 hPa ENE 3.2 km/h 11.3 km/h 76% 0 mm
20:34 16.6 °C 12.3 °C 1021.9 hPa NE 3.2 km/h 11.3 km/h 76% 0 mm
20:39 16.6 °C 12.3 °C 1021.9 hPa NE 1.6 km/h 8 km/h 76% 0 mm
20:44 16.5 °C 12.4 °C 1021.9 hPa Calm   8 km/h 77% 0 mm
20:49 16.4 °C 12.4 °C 1021.9 hPa NE 3.2 km/h 11.3 km/h 77% 0 mm
20:54 16.4 °C 12.3 °C 1021.9 hPa ENE 1.6 km/h 9.7 km/h 77% 0 mm
20:59 16.3 °C 12.2 °C 1021.9 hPa ENE 3.2 km/h 4.8 km/h 77% 0 mm
21:04 16.2 °C 12.2 °C 1021.9 hPa NE 4.8 km/h 6.4 km/h 77% 0 mm
21:09 16.2 °C 12.1 °C 1021.9 hPa ENE 6.4 km/h 11.3 km/h 77% 0 mm
21:14 16.1 °C 12.1 °C 1021.9 hPa NE 3.2 km/h 12.9 km/h 77% 0 mm
21:19 16.1 °C 12.2 °C 1021.6 hPa NE 4.8 km/h 12.9 km/h 78% 0 mm
21:24 16 °C 12.2 °C 1021.6 hPa ENE 4.8 km/h 12.9 km/h 78% 0 mm
21:29 16 °C 12.2 °C 1021.6 hPa ENE 4.8 km/h 12.9 km/h 78% 0 mm
21:34 15.9 °C 12.1 °C 1021.6 hPa ENE 3.2 km/h 8 km/h 78% 0 mm
21:39 15.9 °C 12.1 °C 1021.6 hPa ENE 3.2 km/h 9.7 km/h 78% 0 mm
21:44 15.9 °C 12.1 °C 1021.2 hPa NE 1.6 km/h 9.7 km/h 78% 0 mm
21:49 15.8 °C 12 °C 1021.2 hPa NE 3.2 km/h 9.7 km/h 78% 0 mm
21:54 15.7 °C 12.1 °C 1021.2 hPa Calm   6.4 km/h 79% 0 mm
21:59 15.5 °C 11.9 °C 1021.2 hPa Calm     79% 0 mm
22:04 15.5 °C 12.1 °C 1021.2 hPa ENE 3.2 km/h 6.4 km/h 80% 0 mm
22:09 15.4 °C 12 °C 1021.2 hPa Calm   3.2 km/h 80% 0 mm
22:14 15.4 °C 12.2 °C 1021.2 hPa Calm   3.2 km/h 81% 0 mm
22:19 15.4 °C 12.2 °C 1021.2 hPa Calm   4.8 km/h 81% 0 mm
22:24 15.3 °C 12.1 °C 1021.2 hPa Calm   4.8 km/h 81% 0 mm
22:29 15.2 °C 12.2 °C 1021.2 hPa Calm   4.8 km/h 82% 0 mm
22:34 15.3 °C 12.2 °C 1021.2 hPa Calm   4.8 km/h 82% 0 mm
22:39 15.3 °C 12.2 °C 1021.2 hPa Calm   4.8 km/h 82% 0 mm
22:44 15.2 °C 12.2 °C 1021.2 hPa Calm     82% 0 mm
22:49 15.1 °C 12 °C 1021.2 hPa Calm   4.8 km/h 82% 0 mm
22:54 15 °C 11.9 °C 1021.2 hPa Calm   4.8 km/h 82% 0 mm
22:59 14.9 °C 12 °C 1020.9 hPa Calm     83% 0 mm
23:04 14.8 °C 11.9 °C 1020.9 hPa Calm   4.8 km/h 83% 0 mm
23:09 14.7 °C 12 °C 1020.9 hPa East 1.6 km/h 4.8 km/h 84% 0 mm
23:14 14.7 °C 12 °C 1020.9 hPa Calm   4.8 km/h 84% 0 mm
23:19 14.6 °C 11.9 °C 1020.9 hPa Calm     84% 0 mm
23:29 14.4 °C 11.9 °C 1020.9 hPa Calm   4.8 km/h 85% 0 mm
23:34 14.3 °C 11.8 °C 1020.9 hPa Calm     85% 0 mm
23:39 14.2 °C 11.7 °C 1020.5 hPa Calm     85% 0 mm
23:44 14.1 °C 11.7 °C 1020.5 hPa Calm     86% 0 mm
23:49 13.9 °C 11.7 °C 1020.5 hPa Calm   3.2 km/h 86% 0 mm
23:54 13.9 °C 11.8 °C 1020.5 hPa Calm   1.6 km/h 87% 0 mm
23:59 13.8 °C 11.7 °C 1020.5 hPa Calm   1.6 km/h 87% 0 mm
Buffalo, New York, USA
Compliments of Weather Underground - 2.5 mb